createdAt,value
2023-03-28T00:00:44.923Z,100.00
2023-03-28T00:01:47.166Z,100.00
2023-03-28T00:02:49.354Z,100.00
2023-03-28T00:03:52.551Z,100.00
2023-03-28T00:04:54.986Z,100.00
2023-03-28T00:06:00.955Z,100.00
2023-03-28T00:07:03.581Z,100.00
2023-03-28T00:08:06.573Z,100.00
2023-03-28T00:09:09.137Z,100.00
2023-03-28T00:10:11.485Z,100.00
2023-03-28T00:11:19.785Z,100.00
2023-03-28T00:12:22.701Z,100.00
2023-03-28T00:13:24.918Z,100.00
2023-03-28T00:14:27.171Z,100.00
2023-03-28T00:15:30.042Z,100.00
2023-03-28T00:16:35.612Z,100.00
2023-03-28T00:17:38.421Z,100.00
2023-03-28T00:18:42.463Z,100.00
2023-03-28T00:19:46.981Z,100.00
2023-03-28T00:20:49.533Z,100.00
2023-03-28T00:21:51.711Z,100.00
2023-03-28T00:22:54.796Z,100.00
2023-03-28T00:24:01.921Z,100.00
2023-03-28T00:25:07.008Z,100.00
2023-03-28T00:26:09.712Z,100.00
2023-03-28T00:27:11.970Z,100.00
2023-03-28T00:28:14.162Z,100.00
2023-03-28T00:29:21.116Z,100.00
2023-03-28T00:30:23.625Z,100.00
2023-03-28T00:31:26.391Z,100.00
2023-03-28T00:32:28.945Z,100.00
2023-03-28T00:33:31.378Z,100.00
2023-03-28T00:34:33.638Z,100.00
2023-03-28T00:35:36.061Z,100.00
2023-03-28T00:36:39.751Z,100.00
2023-03-28T00:37:42.556Z,100.00
2023-03-28T00:38:46.002Z,100.00
2023-03-28T00:39:51.804Z,100.00
2023-03-28T00:40:57.742Z,100.00
2023-03-28T00:42:01.683Z,100.00
2023-03-28T00:43:04.291Z,100.00
2023-03-28T00:44:44.014Z,100.00
2023-03-28T00:45:53.044Z,100.00
2023-03-28T00:47:01.532Z,100.00
2023-03-28T00:48:15.457Z,100.00
2023-03-28T00:49:26.100Z,100.00
2023-03-28T00:50:34.343Z,100.00
2023-03-28T00:51:44.638Z,100.00
2023-03-28T00:52:55.287Z,100.00
2023-03-28T00:54:00.639Z,100.00
2023-03-28T00:55:05.879Z,100.00
2023-03-28T00:56:11.514Z,100.00
2023-03-28T00:57:16.466Z,100.00
2023-03-28T00:58:26.672Z,100.00
2023-03-28T00:59:35.126Z,100.00
2023-03-28T01:00:41.319Z,100.00
2023-03-28T01:01:45.055Z,100.00
2023-03-28T01:02:53.325Z,100.00
2023-03-28T01:04:02.277Z,100.00
2023-03-28T01:05:06.129Z,100.00
2023-03-28T01:06:10.175Z,100.00
2023-03-28T01:07:16.269Z,100.00
2023-03-28T01:08:24.835Z,100.00
2023-03-28T01:09:28.193Z,100.00
2023-03-28T01:10:32.659Z,100.00
2023-03-28T01:11:38.235Z,100.00
2023-03-28T01:12:43.234Z,100.00
2023-03-28T01:13:49.851Z,100.00
2023-03-28T01:14:52.678Z,100.00
2023-03-28T01:15:55.739Z,100.00
2023-03-28T01:16:58.294Z,100.00
2023-03-28T01:18:03.378Z,100.00
2023-03-28T01:19:21.983Z,100.00
2023-03-28T01:20:55.063Z,100.00
2023-03-28T01:22:13.798Z,100.00
2023-03-28T01:23:33.745Z,100.00
2023-03-28T01:25:20.388Z,100.00
2023-03-28T01:26:52.946Z,100.00
2023-03-28T01:28:05.350Z,100.00
2023-03-28T01:29:21.148Z,100.00
2023-03-28T01:30:57.997Z,100.00
2023-03-28T01:32:50.844Z,100.00
2023-03-28T01:34:38.611Z,100.00
2023-03-28T01:36:01.355Z,100.00
2023-03-28T01:37:23.715Z,100.00
2023-03-28T01:38:54.107Z,100.00
2023-03-28T01:40:29.165Z,100.00
2023-03-28T01:41:53.807Z,100.00
2023-03-28T01:43:14.294Z,100.00
2023-03-28T01:44:26.910Z,100.00
2023-03-28T01:46:18.589Z,100.00
2023-03-28T01:47:42.258Z,100.00
2023-03-28T01:49:02.615Z,100.00
2023-03-28T01:50:10.752Z,100.00
2023-03-28T01:51:27.412Z,100.00
2023-03-28T01:52:36.151Z,100.00
2023-03-28T01:54:07.668Z,100.00
2023-03-28T01:55:24.806Z,100.00
2023-03-28T01:56:38.172Z,100.00
2023-03-28T01:57:56.229Z,100.00
2023-03-28T01:59:09.192Z,100.00
2023-03-28T02:02:19.340Z,100.00
2023-03-28T02:03:46.194Z,100.00
2023-03-28T02:05:15.822Z,100.00
2023-03-28T02:06:21.227Z,100.00
2023-03-28T02:07:25.497Z,100.00
2023-03-28T02:08:42.906Z,100.00
2023-03-28T02:10:15.323Z,100.00
2023-03-28T02:11:56.269Z,100.00
2023-03-28T02:13:12.307Z,100.00
2023-03-28T02:14:27.596Z,100.00
2023-03-28T02:15:57.726Z,100.00
2023-03-28T02:17:06.298Z,100.00
2023-03-28T02:18:45.339Z,100.00
2023-03-28T02:20:19.356Z,100.00
2023-03-28T02:21:56.454Z,100.00
2023-03-28T02:23:19.406Z,100.00
2023-03-28T02:24:42.078Z,100.00
2023-03-28T02:25:49.359Z,100.00
2023-03-28T02:27:12.100Z,100.00
2023-03-28T02:28:31.705Z,100.00
2023-03-28T02:30:03.567Z,100.00
2023-03-28T02:31:16.206Z,100.00
2023-03-28T02:32:21.744Z,100.00
2023-03-28T02:33:41.705Z,100.00
2023-03-28T02:34:48.773Z,100.00
2023-03-28T02:36:08.295Z,100.00
2023-03-28T02:37:29.164Z,100.00
2023-03-28T02:39:04.725Z,100.00
2023-03-28T02:40:35.850Z,100.00
2023-03-28T02:41:56.925Z,100.00
2023-03-28T02:43:32.289Z,100.00
2023-03-28T02:45:16.411Z,100.00
2023-03-28T02:46:27.586Z,100.00
2023-03-28T02:47:54.579Z,100.00
2023-03-28T02:49:23.131Z,100.00
2023-03-28T02:50:36.941Z,100.00
2023-03-28T02:51:48.803Z,100.00
2023-03-28T02:53:04.003Z,100.00
2023-03-28T02:54:22.937Z,100.00
2023-03-28T02:56:02.282Z,100.00
2023-03-28T02:57:45.577Z,100.00
2023-03-28T02:58:55.564Z,100.00
2023-03-28T03:00:05.424Z,100.00
2023-03-28T03:01:10.435Z,100.00
2023-03-28T03:02:18.985Z,100.00
2023-03-28T03:03:23.319Z,100.00
2023-03-28T03:04:25.654Z,100.00
2023-03-28T03:05:28.011Z,100.00
2023-03-28T03:06:30.222Z,100.00
2023-03-28T03:07:32.469Z,100.00
2023-03-28T03:08:35.143Z,100.00
2023-03-28T03:09:37.461Z,100.00
2023-03-28T03:10:39.789Z,100.00
2023-03-28T03:11:41.964Z,100.00
2023-03-28T03:12:44.559Z,100.00
2023-03-28T03:13:47.172Z,100.00
2023-03-28T03:14:50.819Z,100.00
2023-03-28T03:16:12.994Z,100.00
2023-03-28T03:17:15.410Z,100.00
2023-03-28T03:18:18.154Z,100.00
2023-03-28T03:19:20.781Z,100.00
2023-03-28T03:20:23.090Z,100.00
2023-03-28T03:21:26.499Z,100.00
2023-03-28T03:22:28.655Z,100.00
2023-03-28T03:23:30.939Z,100.00
2023-03-28T03:24:36.341Z,100.00
2023-03-28T03:25:39.294Z,100.00
2023-03-28T03:26:48.709Z,100.00
2023-03-28T03:27:51.988Z,100.00
2023-03-28T03:28:57.201Z,100.00
2023-03-28T03:30:04.124Z,100.00
2023-03-28T03:31:23.263Z,100.00
2023-03-28T03:32:45.347Z,100.00
2023-03-28T03:33:47.755Z,100.00
2023-03-28T03:34:53.167Z,100.00
2023-03-28T03:35:55.600Z,100.00
2023-03-28T03:36:57.797Z,100.00
2023-03-28T03:38:00.862Z,100.00
2023-03-28T03:39:03.685Z,100.00
2023-03-28T03:40:06.993Z,100.00
2023-03-28T03:41:11.239Z,100.00
2023-03-28T03:42:14.085Z,100.00
2023-03-28T03:43:16.741Z,100.00
2023-03-28T03:44:19.906Z,100.00
2023-03-28T03:45:22.635Z,100.00
2023-03-28T03:46:25.036Z,100.00
2023-03-28T03:47:28.456Z,100.00
2023-03-28T03:48:30.790Z,100.00
2023-03-28T03:49:34.861Z,100.00
2023-03-28T03:50:39.700Z,100.00
2023-03-28T03:51:48.644Z,100.00
2023-03-28T03:52:52.419Z,100.00
2023-03-28T03:54:00.443Z,100.00
2023-03-28T03:55:10.497Z,100.00
2023-03-28T03:56:15.255Z,100.00
2023-03-28T03:57:27.616Z,100.00
2023-03-28T03:58:34.623Z,100.00
2023-03-28T03:59:41.197Z,100.00
2023-03-28T04:00:48.819Z,100.00
2023-03-28T04:02:12.049Z,100.00
2023-03-28T04:03:26.473Z,100.00
2023-03-28T04:04:30.373Z,100.00
2023-03-28T04:05:48.925Z,100.00
2023-03-28T04:06:51.459Z,100.00
2023-03-28T04:07:53.839Z,100.00
2023-03-28T04:09:03.187Z,100.00
2023-03-28T04:10:31.304Z,100.00
2023-03-28T04:11:34.717Z,100.00
2023-03-28T04:12:37.059Z,100.00
2023-03-28T04:13:41.030Z,100.00
2023-03-28T04:14:43.425Z,100.00
2023-03-28T04:16:04.987Z,100.00
2023-03-28T04:17:16.135Z,100.00
2023-03-28T04:18:20.460Z,100.00
2023-03-28T04:19:24.361Z,100.00
2023-03-28T04:20:29.720Z,100.00
2023-03-28T04:21:42.865Z,100.00
2023-03-28T04:22:46.500Z,100.00
2023-03-28T04:23:52.175Z,100.00
2023-03-28T04:25:04.581Z,100.00
2023-03-28T04:26:15.325Z,100.00
2023-03-28T04:27:26.279Z,100.00
2023-03-28T04:28:29.285Z,100.00
2023-03-28T04:29:37.020Z,100.00
2023-03-28T04:30:58.171Z,100.00
2023-03-28T04:32:05.512Z,100.00
2023-03-28T04:33:33.697Z,100.00
2023-03-28T04:34:38.894Z,100.00
2023-03-28T04:35:51.735Z,100.00
2023-03-28T04:36:56.782Z,100.00
2023-03-28T04:37:59.882Z,100.00
2023-03-28T04:39:03.779Z,100.00
2023-03-28T04:40:21.655Z,100.00
2023-03-28T04:41:34.126Z,100.00
2023-03-28T04:42:55.612Z,100.00
2023-03-28T04:44:07.849Z,100.00
2023-03-28T04:45:18.821Z,100.00
2023-03-28T04:46:22.841Z,100.00
2023-03-28T04:47:25.484Z,100.00
2023-03-28T04:48:28.040Z,100.00
2023-03-28T04:49:30.394Z,100.00
2023-03-28T04:50:35.139Z,100.00
2023-03-28T04:51:38.105Z,100.00
2023-03-28T04:52:40.476Z,100.00
2023-03-28T04:53:42.970Z,100.00
2023-03-28T04:55:10.186Z,100.00
2023-03-28T04:56:13.940Z,100.00
2023-03-28T04:57:16.473Z,100.00
2023-03-28T04:58:23.705Z,100.00
2023-03-28T04:59:26.288Z,100.00
2023-03-28T05:00:29.736Z,100.00
2023-03-28T05:01:33.019Z,100.00
2023-03-28T05:02:56.346Z,100.00
2023-03-28T05:04:01.178Z,100.00
2023-03-28T05:05:03.903Z,100.00
2023-03-28T05:06:07.119Z,100.00
2023-03-28T05:07:09.671Z,100.00
2023-03-28T05:08:13.225Z,100.00
2023-03-28T05:09:16.660Z,100.00
2023-03-28T05:10:18.920Z,100.00
2023-03-28T05:11:24.690Z,100.00
2023-03-28T05:12:26.893Z,100.00
2023-03-28T05:13:39.590Z,100.00
2023-03-28T05:14:50.808Z,100.00
2023-03-28T05:15:53.692Z,100.00
2023-03-28T05:17:18.593Z,100.00
2023-03-28T05:18:31.188Z,100.00
2023-03-28T05:19:33.614Z,100.00
2023-03-28T05:20:42.646Z,100.00
2023-03-28T05:21:44.897Z,100.00
2023-03-28T05:22:49.099Z,100.00
2023-03-28T05:23:51.968Z,100.00
2023-03-28T05:24:57.810Z,100.00
2023-03-28T05:26:01.064Z,100.00
2023-03-28T05:27:06.537Z,100.00
2023-03-28T05:28:09.124Z,100.00
2023-03-28T05:29:22.652Z,100.00
2023-03-28T05:30:26.088Z,100.00
2023-03-28T05:31:31.084Z,100.00
2023-03-28T05:32:49.993Z,100.00
2023-03-28T05:33:52.410Z,100.00
2023-03-28T05:35:13.402Z,100.00
2023-03-28T05:36:15.718Z,100.00
2023-03-28T05:37:18.118Z,100.00
2023-03-28T05:38:24.935Z,100.00
2023-03-28T05:39:31.658Z,100.00
2023-03-28T05:40:42.357Z,100.00
2023-03-28T05:41:44.668Z,100.00
2023-03-28T05:42:47.221Z,100.00
2023-03-28T05:43:51.501Z,100.00
2023-03-28T05:45:12.407Z,100.00
2023-03-28T05:46:26.363Z,100.00
2023-03-28T05:47:29.609Z,100.00
2023-03-28T05:48:33.284Z,100.00
2023-03-28T05:49:35.553Z,100.00
2023-03-28T05:50:38.350Z,100.00
2023-03-28T05:58:00.195Z,91.78
2023-03-28T05:59:11.662Z,86.49
2023-03-28T06:00:15.126Z,81.22
2023-03-28T06:01:29.167Z,79.13
2023-03-28T06:02:36.214Z,81.23
2023-03-28T06:03:40.142Z,81.66
2023-03-28T06:04:44.975Z,80.23
2023-03-28T06:05:49.375Z,78.01
2023-03-28T06:06:57.829Z,78.38
2023-03-28T06:08:02.628Z,74.95
2023-03-28T06:09:05.302Z,70.74
2023-03-28T06:10:20.985Z,67.21
2023-03-28T06:11:49.542Z,66.62
2023-03-28T06:12:51.819Z,65.31
2023-03-28T06:13:54.204Z,65.56
2023-03-28T06:14:57.088Z,63.17
2023-03-28T06:16:03.121Z,65.11
2023-03-28T06:17:08.557Z,68.58
2023-03-28T06:18:20.753Z,71.73
2023-03-28T06:19:25.962Z,78.78
2023-03-28T06:20:30.638Z,93.98
2023-03-28T06:21:33.853Z,100.00
2023-03-28T06:22:40.671Z,100.00
2023-03-28T06:23:45.780Z,100.00
2023-03-28T06:24:58.539Z,100.00
2023-03-28T06:26:03.428Z,100.00
2023-03-28T06:27:13.184Z,100.00
2023-03-28T06:28:15.723Z,100.00
2023-03-28T06:29:41.250Z,100.00
2023-03-28T06:30:47.982Z,100.00
2023-03-28T06:31:50.302Z,100.00
2023-03-28T06:32:54.122Z,100.00
2023-03-28T06:33:56.426Z,100.00
2023-03-28T06:34:59.189Z,100.00
2023-03-28T06:36:01.677Z,100.00
2023-03-28T06:37:07.739Z,100.00
2023-03-28T06:38:36.081Z,100.00
2023-03-28T06:39:39.492Z,100.00
2023-03-28T06:40:41.797Z,100.00
2023-03-28T06:41:44.588Z,100.00
2023-03-28T06:42:46.891Z,100.00
2023-03-28T06:43:59.001Z,100.00
2023-03-28T06:45:30.588Z,100.00
2023-03-28T06:46:37.784Z,100.00
2023-03-28T06:47:40.612Z,100.00
2023-03-28T06:48:43.184Z,100.00
2023-03-28T06:50:04.425Z,100.00
2023-03-28T06:51:19.374Z,100.00
2023-03-28T06:52:23.090Z,100.00
2023-03-28T06:53:27.368Z,100.00
2023-03-28T06:54:29.565Z,100.00
2023-03-28T06:55:35.405Z,100.00
2023-03-28T06:56:37.824Z,100.00
2023-03-28T06:57:40.319Z,100.00
2023-03-28T06:59:05.770Z,100.00
2023-03-28T07:00:09.464Z,100.00
2023-03-28T07:01:34.922Z,100.00
2023-03-28T07:02:59.936Z,100.00
2023-03-28T07:04:03.055Z,100.00
2023-03-28T07:05:06.074Z,100.00
2023-03-28T07:06:10.177Z,100.00
2023-03-28T07:07:12.462Z,100.00
2023-03-28T07:08:14.835Z,100.00
2023-03-28T07:09:17.189Z,100.00
2023-03-28T07:10:25.383Z,100.00
2023-03-28T07:11:28.103Z,100.00
2023-03-28T07:12:30.656Z,100.00
2023-03-28T07:13:32.955Z,100.00
2023-03-28T07:14:44.613Z,100.00
2023-03-28T07:15:46.899Z,100.00
2023-03-28T07:16:49.220Z,100.00
2023-03-28T07:17:53.132Z,100.00
2023-03-28T07:18:55.961Z,100.00
2023-03-28T07:20:06.721Z,100.00
2023-03-28T07:21:11.198Z,100.00
2023-03-28T07:22:13.448Z,100.00
2023-03-28T07:23:15.746Z,100.00
2023-03-28T07:24:17.963Z,100.00
2023-03-28T07:25:37.542Z,100.00
2023-03-28T07:26:39.971Z,100.00
2023-03-28T07:27:44.292Z,100.00
2023-03-28T07:28:49.783Z,100.00
2023-03-28T07:29:52.213Z,100.00
2023-03-28T07:30:54.756Z,100.00
2023-03-28T07:31:57.438Z,100.00
2023-03-28T07:33:13.818Z,100.00
2023-03-28T07:34:20.543Z,100.00
2023-03-28T07:35:23.489Z,100.00
2023-03-28T07:36:28.890Z,100.00
2023-03-28T07:37:37.380Z,100.00
2023-03-28T07:38:47.268Z,100.00
2023-03-28T07:39:51.215Z,100.00
2023-03-28T07:41:00.636Z,100.00
2023-03-28T07:42:03.461Z,100.00
2023-03-28T07:43:06.013Z,100.00
2023-03-28T07:44:08.512Z,100.00
2023-03-28T07:45:11.457Z,100.00
2023-03-28T07:46:15.529Z,100.00
2023-03-28T07:47:18.269Z,100.00
2023-03-28T07:48:21.265Z,100.00
2023-03-28T07:49:23.726Z,100.00
2023-03-28T07:50:26.179Z,100.00
2023-03-28T07:51:28.993Z,100.00
2023-03-28T07:52:31.269Z,100.00
2023-03-28T07:53:34.779Z,100.00
2023-03-28T07:54:37.789Z,100.00
2023-03-28T07:55:54.266Z,100.00
2023-03-28T07:57:04.035Z,100.00
2023-03-28T07:58:24.896Z,100.00
2023-03-28T07:59:30.313Z,100.00
2023-03-28T08:00:33.089Z,100.00
2023-03-28T08:02:04.358Z,100.00
2023-03-28T08:03:07.975Z,100.00
2023-03-28T08:04:11.847Z,100.00
2023-03-28T08:05:34.098Z,100.00
2023-03-28T08:06:40.231Z,100.00
2023-03-28T08:07:45.951Z,100.00
2023-03-28T08:08:48.571Z,100.00
2023-03-28T08:10:14.011Z,100.00
2023-03-28T08:11:16.438Z,100.00
2023-03-28T08:12:19.594Z,100.00
2023-03-28T08:13:24.333Z,100.00
2023-03-28T08:14:30.561Z,100.00
2023-03-28T08:15:33.281Z,100.00
2023-03-28T08:16:35.853Z,100.00
2023-03-28T08:17:38.273Z,100.00
2023-03-28T08:18:41.578Z,97.65
2023-03-28T08:19:44.299Z,99.65
2023-03-28T08:20:48.095Z,100.00
2023-03-28T08:21:51.593Z,99.65
2023-03-28T08:22:54.218Z,100.00
2023-03-28T08:24:35.180Z,100.00
2023-03-28T08:25:45.279Z,100.00
2023-03-28T08:26:50.647Z,100.00
2023-03-28T08:27:53.617Z,100.00
2023-03-28T08:28:58.642Z,100.00
2023-03-28T08:30:02.419Z,100.00
2023-03-28T08:31:14.339Z,100.00
2023-03-28T08:32:18.713Z,100.00
2023-03-28T08:33:21.999Z,100.00
2023-03-28T08:34:24.670Z,100.00
2023-03-28T08:35:27.528Z,100.00
2023-03-28T08:36:33.475Z,100.00
2023-03-28T08:37:36.035Z,100.00
2023-03-28T08:38:38.609Z,100.00
2023-03-28T08:39:42.632Z,100.00
2023-03-28T08:40:58.721Z,100.00
2023-03-28T08:42:19.907Z,100.00
2023-03-28T08:43:36.943Z,95.02
2023-03-28T08:44:52.144Z,98.29
2023-03-28T08:45:59.822Z,100.00
2023-03-28T08:47:22.549Z,97.90
2023-03-28T08:48:30.900Z,95.10
2023-03-28T08:49:42.929Z,93.70
2023-03-28T08:51:08.422Z,93.48
2023-03-28T08:52:15.998Z,95.57
2023-03-28T08:53:30.266Z,97.36
2023-03-28T08:54:40.458Z,91.78
2023-03-28T08:55:45.694Z,83.40
2023-03-28T08:56:53.758Z,82.35
2023-03-28T08:57:57.307Z,84.76
2023-03-28T08:59:15.986Z,86.29
2023-03-28T09:00:24.461Z,86.43
2023-03-28T09:01:29.439Z,86.20
2023-03-28T09:02:32.093Z,83.23
2023-03-28T09:03:36.271Z,81.00
2023-03-28T09:04:44.974Z,80.65
2023-03-28T09:06:04.797Z,82.58
2023-03-28T09:07:22.370Z,83.91
2023-03-28T09:08:38.116Z,84.70
2023-03-28T09:09:55.256Z,83.61
2023-03-28T09:11:23.480Z,86.18
2023-03-28T09:12:35.352Z,83.45
2023-03-28T09:13:49.414Z,83.12
2023-03-28T09:15:17.596Z,85.43
2023-03-28T09:16:37.764Z,83.43
2023-03-28T09:18:28.764Z,83.84
2023-03-28T09:19:48.428Z,77.68
2023-03-28T09:21:47.189Z,72.14
2023-03-28T09:23:09.770Z,66.45
2023-03-28T09:25:19.383Z,67.94
2023-03-28T09:26:32.812Z,66.58
2023-03-28T09:27:56.109Z,65.83
2023-03-28T09:29:10.896Z,61.60
2023-03-28T09:30:18.987Z,59.40
2023-03-28T09:31:27.793Z,57.27
2023-03-28T09:32:38.405Z,56.26
2023-03-28T09:33:45.774Z,62.31
2023-03-28T09:34:53.628Z,59.62
2023-03-28T09:35:57.541Z,59.88
2023-03-28T09:37:13.502Z,58.78
2023-03-28T09:38:36.103Z,58.33
2023-03-28T09:39:49.384Z,56.38
2023-03-28T09:40:56.095Z,58.13
2023-03-28T09:42:14.765Z,57.28
2023-03-28T09:43:28.750Z,60.74
2023-03-28T09:45:22.748Z,58.66
2023-03-28T09:46:46.940Z,51.04
2023-03-28T09:48:07.304Z,52.23
2023-03-28T09:49:25.586Z,53.75
2023-03-28T09:50:34.554Z,56.64
2023-03-28T09:51:37.918Z,56.23
2023-03-28T09:52:40.345Z,58.02
2023-03-28T09:53:43.330Z,61.03
2023-03-28T09:54:46.963Z,61.79
2023-03-28T09:56:03.376Z,62.31
2023-03-28T09:57:08.514Z,62.16
2023-03-28T09:58:18.234Z,63.21
2023-03-28T09:59:43.314Z,58.95
2023-03-28T10:00:51.906Z,55.70
2023-03-28T10:02:29.284Z,56.80
2023-03-28T10:03:35.742Z,57.34
2023-03-28T10:04:41.743Z,54.65
2023-03-28T10:06:23.695Z,56.44
2023-03-28T10:07:32.679Z,57.77
2023-03-28T10:08:50.811Z,55.06
2023-03-28T10:10:25.341Z,53.82
2023-03-28T10:11:54.162Z,55.39
2023-03-28T10:13:02.190Z,53.36
2023-03-28T10:14:06.078Z,52.49
2023-03-28T10:15:39.056Z,52.79
2023-03-28T10:17:23.309Z,56.85
2023-03-28T10:18:28.340Z,54.26
2023-03-28T10:19:52.257Z,51.50
2023-03-28T10:21:09.044Z,51.67
2023-03-28T10:22:21.335Z,52.98
2023-03-28T10:23:26.711Z,48.39
2023-03-28T10:24:32.806Z,48.94
2023-03-28T10:25:46.015Z,51.39
2023-03-28T10:26:49.341Z,49.58
2023-03-28T10:27:52.582Z,48.42
2023-03-28T10:29:02.249Z,46.54
2023-03-28T10:30:25.278Z,44.37
2023-03-28T10:31:31.775Z,42.74
2023-03-28T10:33:21.214Z,42.62
2023-03-28T10:35:07.748Z,45.17
2023-03-28T10:36:48.025Z,42.92
2023-03-28T10:37:56.808Z,44.54
2023-03-28T10:39:23.171Z,42.84
2023-03-28T10:41:01.376Z,43.13
2023-03-28T10:42:18.451Z,41.98
2023-03-28T10:43:49.720Z,43.79
2023-03-28T10:45:07.190Z,44.23
2023-03-28T10:46:27.786Z,44.04
2023-03-28T10:47:55.823Z,43.92
2023-03-28T10:49:03.916Z,43.94
2023-03-28T10:50:21.154Z,42.90
2023-03-28T10:51:25.963Z,45.33
2023-03-28T10:52:43.192Z,45.51
2023-03-28T10:54:06.478Z,46.95
2023-03-28T10:55:18.332Z,45.09
2023-03-28T10:57:12.682Z,44.75
2023-03-28T10:58:32.590Z,42.71
2023-03-28T10:59:51.308Z,43.93
2023-03-28T11:01:18.267Z,44.10
2023-03-28T11:03:00.170Z,44.27
2023-03-28T11:04:24.179Z,42.44
2023-03-28T11:05:42.408Z,43.88
2023-03-28T11:06:54.932Z,41.71
2023-03-28T11:08:30.798Z,42.84
2023-03-28T11:09:46.635Z,43.39
2023-03-28T11:11:47.217Z,45.65
2023-03-28T11:13:04.300Z,43.93
2023-03-28T11:14:22.129Z,41.65
2023-03-28T11:15:29.622Z,42.25
2023-03-28T11:16:57.526Z,42.07
2023-03-28T11:18:31.115Z,43.66
2023-03-28T11:20:17.325Z,42.41
2023-03-28T11:21:36.859Z,45.70
2023-03-28T11:23:05.627Z,46.97
2023-03-28T11:24:36.213Z,45.31
2023-03-28T11:26:13.233Z,46.57
2023-03-28T11:27:53.890Z,45.78
2023-03-28T11:29:19.648Z,43.14
2023-03-28T11:30:28.238Z,43.06
2023-03-28T11:32:19.750Z,45.71
2023-03-28T11:33:40.628Z,45.23
2023-03-28T11:35:17.914Z,45.03
2023-03-28T11:36:29.390Z,44.61
2023-03-28T11:37:46.327Z,44.79
2023-03-28T11:39:01.159Z,43.81
2023-03-28T11:40:40.584Z,42.30
2023-03-28T11:41:50.067Z,42.16
2023-03-28T11:43:13.601Z,44.29
2023-03-28T11:44:28.757Z,43.54
2023-03-28T11:45:52.043Z,43.70
2023-03-28T11:47:04.737Z,43.31
2023-03-28T11:48:12.474Z,43.49
2023-03-28T11:49:34.825Z,44.14
2023-03-28T11:51:01.392Z,43.67
2023-03-28T11:52:40.322Z,43.16
2023-03-28T11:54:00.736Z,42.56
2023-03-28T11:55:27.559Z,41.96
2023-03-28T11:56:56.693Z,42.61
2023-03-28T11:58:22.487Z,42.30
2023-03-28T11:59:46.423Z,43.74
2023-03-28T12:01:06.690Z,44.77
2023-03-28T12:02:25.879Z,45.00
2023-03-28T12:03:46.536Z,45.42
2023-03-28T12:04:57.102Z,44.07
2023-03-28T12:06:12.985Z,43.96
2023-03-28T12:07:30.288Z,44.65
2023-03-28T12:08:43.853Z,46.11
2023-03-28T12:09:49.356Z,47.11
2023-03-28T12:10:57.994Z,47.86
2023-03-28T12:12:51.244Z,44.83
2023-03-28T12:14:41.618Z,45.19
2023-03-28T12:16:07.084Z,47.61
2023-03-28T12:17:23.059Z,46.09
2023-03-28T12:19:06.082Z,45.03
2023-03-28T12:20:59.832Z,45.58
2023-03-28T12:22:22.661Z,45.15
2023-03-28T12:23:41.924Z,44.19
2023-03-28T12:25:13.737Z,43.53
2023-03-28T12:26:28.848Z,41.76
2023-03-28T12:27:42.820Z,42.59
2023-03-28T12:28:58.451Z,45.37
2023-03-28T12:30:23.705Z,45.98
2023-03-28T12:31:44.811Z,46.51
2023-03-28T12:33:09.418Z,44.03
2023-03-28T12:34:38.179Z,42.93
2023-03-28T12:35:52.366Z,42.47
2023-03-28T12:37:11.899Z,42.37
2023-03-28T12:38:29.161Z,44.58
2023-03-28T12:39:54.957Z,44.79
2023-03-28T12:41:06.185Z,45.51
2023-03-28T12:42:12.882Z,46.97
2023-03-28T12:43:18.695Z,47.32
2023-03-28T12:44:28.071Z,48.17
2023-03-28T12:45:36.910Z,47.38
2023-03-28T12:46:47.336Z,43.94
2023-03-28T12:47:54.368Z,41.65
2023-03-28T12:49:00.774Z,40.85
2023-03-28T12:50:12.146Z,40.48
2023-03-28T12:51:30.080Z,43.20
2023-03-28T12:52:34.946Z,43.67
2023-03-28T12:54:07.466Z,41.12
2023-03-28T12:55:24.693Z,42.80
2023-03-28T12:56:27.866Z,45.20
2023-03-28T12:57:44.908Z,46.94
2023-03-28T12:59:00.881Z,48.88
2023-03-28T13:00:13.450Z,48.09
2023-03-28T13:01:40.921Z,48.26
2023-03-28T13:03:27.988Z,47.93
2023-03-28T13:04:52.330Z,49.87
2023-03-28T13:06:24.973Z,49.23
2023-03-28T13:07:46.939Z,49.00
2023-03-28T13:09:16.083Z,48.38
2023-03-28T13:10:30.512Z,48.83
2023-03-28T13:11:56.976Z,48.67
2023-03-28T13:13:44.041Z,47.65
2023-03-28T13:15:02.322Z,47.99
2023-03-28T13:16:15.328Z,49.67
2023-03-28T13:17:26.328Z,47.99
2023-03-28T13:18:34.128Z,47.39
2023-03-28T13:19:42.672Z,49.21
2023-03-28T13:20:48.004Z,49.88
2023-03-28T13:21:57.507Z,48.35
2023-03-28T13:23:07.460Z,46.09
2023-03-28T13:24:29.941Z,45.79
2023-03-28T13:25:32.965Z,47.64
2023-03-28T13:26:53.990Z,45.02
2023-03-28T13:28:11.365Z,42.50
2023-03-28T13:29:13.611Z,42.12
2023-03-28T13:30:21.155Z,43.40
2023-03-28T13:31:26.052Z,43.72
2023-03-28T13:32:35.234Z,42.57
2023-03-28T13:33:44.967Z,43.67
2023-03-28T13:34:56.654Z,41.53
2023-03-28T13:35:58.990Z,40.83
2023-03-28T13:37:22.579Z,41.39
2023-03-28T13:38:28.177Z,42.57
2023-03-28T13:39:30.486Z,45.00
2023-03-28T13:41:09.170Z,44.73
2023-03-28T13:42:56.993Z,44.12
2023-03-28T13:44:01.864Z,44.78
2023-03-28T13:45:23.180Z,47.05
2023-03-28T13:46:43.101Z,44.84
2023-03-28T13:47:46.046Z,44.13
2023-03-28T13:49:02.833Z,44.58
2023-03-28T13:50:26.518Z,45.56
2023-03-28T13:51:39.106Z,48.14
2023-03-28T13:52:41.367Z,49.84
2023-03-28T13:53:48.073Z,49.45
2023-03-28T13:54:54.357Z,48.98
2023-03-28T13:56:18.678Z,47.84
2023-03-28T13:57:25.687Z,48.97
2023-03-28T13:58:29.030Z,49.63
2023-03-28T13:59:39.235Z,48.69
2023-03-28T14:00:41.598Z,49.84
2023-03-28T14:01:54.154Z,50.02
2023-03-28T14:03:13.159Z,48.44
2023-03-28T14:04:21.573Z,47.39
2023-03-28T14:05:27.241Z,46.37
2023-03-28T14:06:30.602Z,48.96
2023-03-28T14:07:32.910Z,48.04
2023-03-28T14:08:35.326Z,50.08
2023-03-28T14:09:37.561Z,49.73
2023-03-28T14:10:42.842Z,50.53
2023-03-28T14:11:45.996Z,49.77
2023-03-28T14:12:52.577Z,49.76
2023-03-28T14:14:14.201Z,49.74
2023-03-28T14:15:25.702Z,50.12
2023-03-28T14:16:27.969Z,50.49
2023-03-28T14:17:33.588Z,49.78
2023-03-28T14:18:41.334Z,49.41
2023-03-28T14:19:47.863Z,49.64
2023-03-28T14:20:50.237Z,48.00
2023-03-28T14:21:53.540Z,47.87
2023-03-28T14:23:00.298Z,48.27
2023-03-28T14:24:07.024Z,46.59
2023-03-28T14:25:14.887Z,45.88
2023-03-28T14:26:20.109Z,45.94
2023-03-28T14:27:38.491Z,45.41
2023-03-28T14:28:41.694Z,45.82
2023-03-28T14:29:54.594Z,48.83
2023-03-28T14:30:57.541Z,47.62
2023-03-28T14:32:00.719Z,46.55
2023-03-28T14:33:14.343Z,47.12
2023-03-28T14:34:38.637Z,46.56
2023-03-28T14:35:42.284Z,46.59
2023-03-28T14:36:58.582Z,48.51
2023-03-28T14:38:13.958Z,46.42
2023-03-28T14:39:18.312Z,46.55
2023-03-28T14:40:30.432Z,46.06
2023-03-28T14:41:36.085Z,44.58
2023-03-28T14:42:38.321Z,45.91
2023-03-28T14:43:40.628Z,46.06
2023-03-28T14:44:46.451Z,47.50
2023-03-28T14:45:52.758Z,49.35
2023-03-28T14:46:59.848Z,46.53
2023-03-28T14:48:05.953Z,48.07
2023-03-28T14:49:13.617Z,48.07
2023-03-28T14:50:20.167Z,48.47
2023-03-28T14:51:22.795Z,47.29
2023-03-28T14:52:36.613Z,48.36
2023-03-28T14:53:42.177Z,46.90
2023-03-28T14:54:47.091Z,44.94
2023-03-28T14:55:50.888Z,44.83
2023-03-28T14:56:55.599Z,45.58
2023-03-28T14:57:59.713Z,45.38
2023-03-28T14:59:02.761Z,45.97
2023-03-28T15:00:12.539Z,46.50
2023-03-28T15:01:22.652Z,46.58
2023-03-28T15:02:40.805Z,46.40
2023-03-28T15:03:47.163Z,46.60
2023-03-28T15:04:50.408Z,46.25
2023-03-28T15:05:54.778Z,46.22
2023-03-28T15:06:58.369Z,45.55
2023-03-28T15:08:02.638Z,46.22
2023-03-28T15:09:28.369Z,46.67
2023-03-28T15:10:31.383Z,47.91
2023-03-28T15:11:36.353Z,46.98
2023-03-28T15:12:49.711Z,46.67
2023-03-28T15:14:15.996Z,44.91
2023-03-28T15:15:27.079Z,46.64
2023-03-28T15:16:32.226Z,46.87
2023-03-28T15:17:37.286Z,46.40
2023-03-28T15:18:44.626Z,46.86
2023-03-28T15:19:52.634Z,46.53
2023-03-28T15:21:00.216Z,47.01
2023-03-28T15:22:08.360Z,47.58
2023-03-28T15:23:32.232Z,47.73